sensor_id;sensor_type;location;lat;lon;timestamp;P1;durP1;ratioP1;P2;durP2;ratioP2
2868;SDS011;1442;47.448;8.582;2023-10-08T00:01:17;10.02;;;6.20;;
2868;SDS011;1442;47.448;8.582;2023-10-08T00:03:46;9.90;;;5.85;;
2868;SDS011;1442;47.448;8.582;2023-10-08T00:06:17;11.20;;;5.90;;
2868;SDS011;1442;47.448;8.582;2023-10-08T00:08:45;9.90;;;5.68;;
2868;SDS011;1442;47.448;8.582;2023-10-08T00:11:12;10.70;;;6.13;;
2868;SDS011;1442;47.448;8.582;2023-10-08T00:13:41;12.30;;;5.97;;
2868;SDS011;1442;47.448;8.582;2023-10-08T00:16:09;10.05;;;5.78;;
2868;SDS011;1442;47.448;8.582;2023-10-08T00:18:36;11.40;;;6.05;;
2868;SDS011;1442;47.448;8.582;2023-10-08T00:21:06;11.73;;;6.23;;
2868;SDS011;1442;47.448;8.582;2023-10-08T00:23:43;14.03;;;6.63;;
2868;SDS011;1442;47.448;8.582;2023-10-08T00:26:15;8.88;;;5.85;;
2868;SDS011;1442;47.448;8.582;2023-10-08T00:28:45;12.00;;;6.38;;
2868;SDS011;1442;47.448;8.582;2023-10-08T00:31:13;9.95;;;6.13;;
2868;SDS011;1442;47.448;8.582;2023-10-08T00:33:42;10.98;;;6.07;;
2868;SDS011;1442;47.448;8.582;2023-10-08T00:36:10;8.77;;;5.88;;
2868;SDS011;1442;47.448;8.582;2023-10-08T00:38:45;11.82;;;6.55;;
2868;SDS011;1442;47.448;8.582;2023-10-08T00:41:14;10.30;;;6.95;;
2868;SDS011;1442;47.448;8.582;2023-10-08T00:43:42;9.27;;;6.35;;
2868;SDS011;1442;47.448;8.582;2023-10-08T00:46:13;12.95;;;6.50;;
2868;SDS011;1442;47.448;8.582;2023-10-08T00:48:48;11.40;;;6.05;;
2868;SDS011;1442;47.448;8.582;2023-10-08T00:51:18;11.00;;;6.65;;
2868;SDS011;1442;47.448;8.582;2023-10-08T00:53:59;11.45;;;6.18;;
2868;SDS011;1442;47.448;8.582;2023-10-08T00:56:30;10.63;;;6.28;;
2868;SDS011;1442;47.448;8.582;2023-10-08T00:59:11;12.07;;;6.55;;
2868;SDS011;1442;47.448;8.582;2023-10-08T01:01:40;11.57;;;6.65;;
2868;SDS011;1442;47.448;8.582;2023-10-08T01:04:14;11.25;;;6.10;;
2868;SDS011;1442;47.448;8.582;2023-10-08T01:06:41;12.77;;;6.82;;
2868;SDS011;1442;47.448;8.582;2023-10-08T01:09:10;11.55;;;6.57;;
2868;SDS011;1442;47.448;8.582;2023-10-08T01:11:43;8.77;;;5.90;;
2868;SDS011;1442;47.448;8.582;2023-10-08T01:14:14;9.10;;;6.13;;
2868;SDS011;1442;47.448;8.582;2023-10-08T01:16:46;10.75;;;6.35;;
2868;SDS011;1442;47.448;8.582;2023-10-08T01:19:17;10.43;;;6.17;;
2868;SDS011;1442;47.448;8.582;2023-10-08T01:21:45;11.68;;;6.18;;
2868;SDS011;1442;47.448;8.582;2023-10-08T01:24:14;12.00;;;6.40;;
2868;SDS011;1442;47.448;8.582;2023-10-08T01:26:48;9.35;;;5.80;;
2868;SDS011;1442;47.448;8.582;2023-10-08T01:29:16;10.10;;;5.95;;
2868;SDS011;1442;47.448;8.582;2023-10-08T01:31:45;11.30;;;6.03;;
2868;SDS011;1442;47.448;8.582;2023-10-08T01:34:13;10.32;;;5.82;;
2868;SDS011;1442;47.448;8.582;2023-10-08T01:36:42;10.18;;;5.78;;
2868;SDS011;1442;47.448;8.582;2023-10-08T01:39:10;9.47;;;5.87;;
2868;SDS011;1442;47.448;8.582;2023-10-08T01:41:43;12.98;;;6.20;;
2868;SDS011;1442;47.448;8.582;2023-10-08T01:44:11;13.27;;;6.22;;
2868;SDS011;1442;47.448;8.582;2023-10-08T01:46:39;11.02;;;6.07;;
2868;SDS011;1442;47.448;8.582;2023-10-08T01:49:06;9.02;;;5.63;;
2868;SDS011;1442;47.448;8.582;2023-10-08T01:51:39;11.85;;;6.00;;
2868;SDS011;1442;47.448;8.582;2023-10-08T01:54:12;15.43;;;6.03;;
2868;SDS011;1442;47.448;8.582;2023-10-08T01:56:44;10.60;;;5.70;;
2868;SDS011;1442;47.448;8.582;2023-10-08T01:59:11;12.18;;;5.82;;
2868;SDS011;1442;47.448;8.582;2023-10-08T02:01:39;11.25;;;6.20;;
2868;SDS011;1442;47.448;8.582;2023-10-08T02:04:07;11.45;;;5.68;;
2868;SDS011;1442;47.448;8.582;2023-10-08T02:06:34;9.73;;;5.18;;
2868;SDS011;1442;47.448;8.582;2023-10-08T02:09:02;10.33;;;6.13;;
2868;SDS011;1442;47.448;8.582;2023-10-08T02:11:40;10.82;;;5.53;;
2868;SDS011;1442;47.448;8.582;2023-10-08T02:14:09;13.30;;;5.90;;
2868;SDS011;1442;47.448;8.582;2023-10-08T02:16:40;9.85;;;5.82;;
2868;SDS011;1442;47.448;8.582;2023-10-08T02:19:07;9.13;;;5.25;;
2868;SDS011;1442;47.448;8.582;2023-10-08T02:21:35;11.07;;;6.18;;
2868;SDS011;1442;47.448;8.582;2023-10-08T02:24:05;9.43;;;5.78;;
2868;SDS011;1442;47.448;8.582;2023-10-08T02:26:32;11.10;;;5.97;;
2868;SDS011;1442;47.448;8.582;2023-10-08T02:28:59;11.18;;;5.70;;
2868;SDS011;1442;47.448;8.582;2023-10-08T02:31:28;8.70;;;5.25;;
2868;SDS011;1442;47.448;8.582;2023-10-08T02:33:55;10.07;;;6.20;;
2868;SDS011;1442;47.448;8.582;2023-10-08T02:36:24;12.65;;;5.68;;
2868;SDS011;1442;47.448;8.582;2023-10-08T02:38:51;9.55;;;5.65;;
2868;SDS011;1442;47.448;8.582;2023-10-08T02:41:20;9.82;;;5.80;;
2868;SDS011;1442;47.448;8.582;2023-10-08T02:43:49;9.73;;;5.53;;
2868;SDS011;1442;47.448;8.582;2023-10-08T02:46:16;8.65;;;5.63;;
2868;SDS011;1442;47.448;8.582;2023-10-08T02:48:45;11.02;;;5.95;;
2868;SDS011;1442;47.448;8.582;2023-10-08T02:51:12;10.32;;;5.90;;
2868;SDS011;1442;47.448;8.582;2023-10-08T02:53:40;11.15;;;5.90;;
2868;SDS011;1442;47.448;8.582;2023-10-08T02:56:09;9.73;;;5.43;;
2868;SDS011;1442;47.448;8.582;2023-10-08T02:58:39;13.18;;;6.57;;
2868;SDS011;1442;47.448;8.582;2023-10-08T03:01:08;13.10;;;5.85;;
2868;SDS011;1442;47.448;8.582;2023-10-08T03:03:38;11.02;;;6.00;;
2868;SDS011;1442;47.448;8.582;2023-10-08T03:06:07;11.13;;;5.55;;
2868;SDS011;1442;47.448;8.582;2023-10-08T03:08:37;12.70;;;6.28;;
2868;SDS011;1442;47.448;8.582;2023-10-08T03:11:05;12.00;;;6.07;;
2868;SDS011;1442;47.448;8.582;2023-10-08T03:13:33;10.90;;;6.18;;
2868;SDS011;1442;47.448;8.582;2023-10-08T03:16:03;11.70;;;5.93;;
2868;SDS011;1442;47.448;8.582;2023-10-08T03:18:34;12.57;;;6.33;;
2868;SDS011;1442;47.448;8.582;2023-10-08T03:21:02;10.80;;;6.03;;
2868;SDS011;1442;47.448;8.582;2023-10-08T03:23:31;11.85;;;5.47;;
2868;SDS011;1442;47.448;8.582;2023-10-08T03:26:09;11.60;;;6.28;;
2868;SDS011;1442;47.448;8.582;2023-10-08T03:28:36;9.68;;;5.60;;
2868;SDS011;1442;47.448;8.582;2023-10-08T03:31:06;9.90;;;6.10;;
2868;SDS011;1442;47.448;8.582;2023-10-08T03:33:39;12.88;;;6.00;;
2868;SDS011;1442;47.448;8.582;2023-10-08T03:36:08;10.27;;;6.50;;
2868;SDS011;1442;47.448;8.582;2023-10-08T03:38:40;11.15;;;5.93;;
2868;SDS011;1442;47.448;8.582;2023-10-08T03:41:15;10.95;;;6.00;;
2868;SDS011;1442;47.448;8.582;2023-10-08T03:43:43;10.05;;;6.03;;
2868;SDS011;1442;47.448;8.582;2023-10-08T03:46:18;12.10;;;5.82;;
2868;SDS011;1442;47.448;8.582;2023-10-08T03:48:46;10.30;;;5.85;;
2868;SDS011;1442;47.448;8.582;2023-10-08T03:51:16;15.35;;;6.30;;
2868;SDS011;1442;47.448;8.582;2023-10-08T03:53:47;11.70;;;6.20;;
2868;SDS011;1442;47.448;8.582;2023-10-08T03:56:25;14.07;;;6.10;;
2868;SDS011;1442;47.448;8.582;2023-10-08T03:58:54;12.55;;;6.43;;
2868;SDS011;1442;47.448;8.582;2023-10-08T04:01:25;10.95;;;6.07;;
2868;SDS011;1442;47.448;8.582;2023-10-08T04:03:58;10.07;;;6.10;;
2868;SDS011;1442;47.448;8.582;2023-10-08T04:06:26;12.90;;;6.28;;
2868;SDS011;1442;47.448;8.582;2023-10-08T04:09:04;9.80;;;5.82;;
2868;SDS011;1442;47.448;8.582;2023-10-08T04:11:41;11.60;;;6.13;;
2868;SDS011;1442;47.448;8.582;2023-10-08T04:14:17;11.00;;;6.45;;
2868;SDS011;1442;47.448;8.582;2023-10-08T04:16:44;12.95;;;6.05;;
2868;SDS011;1442;47.448;8.582;2023-10-08T04:19:12;11.53;;;6.03;;
2868;SDS011;1442;47.448;8.582;2023-10-08T04:21:43;10.13;;;6.25;;
2868;SDS011;1442;47.448;8.582;2023-10-08T04:24:12;14.95;;;6.53;;
2868;SDS011;1442;47.448;8.582;2023-10-08T04:26:40;11.73;;;6.43;;
2868;SDS011;1442;47.448;8.582;2023-10-08T04:29:08;10.60;;;6.55;;
2868;SDS011;1442;47.448;8.582;2023-10-08T04:31:41;12.70;;;6.57;;
2868;SDS011;1442;47.448;8.582;2023-10-08T04:34:11;14.98;;;6.88;;
2868;SDS011;1442;47.448;8.582;2023-10-08T04:36:42;12.77;;;6.60;;
2868;SDS011;1442;47.448;8.582;2023-10-08T04:39:10;12.73;;;6.70;;
2868;SDS011;1442;47.448;8.582;2023-10-08T04:41:42;12.60;;;6.87;;
2868;SDS011;1442;47.448;8.582;2023-10-08T04:44:09;11.45;;;6.68;;
2868;SDS011;1442;47.448;8.582;2023-10-08T04:46:41;12.43;;;6.57;;
2868;SDS011;1442;47.448;8.582;2023-10-08T04:49:17;11.20;;;6.33;;
2868;SDS011;1442;47.448;8.582;2023-10-08T04:51:53;11.57;;;6.90;;
2868;SDS011;1442;47.448;8.582;2023-10-08T04:54:22;12.32;;;6.97;;
2868;SDS011;1442;47.448;8.582;2023-10-08T04:56:50;14.90;;;7.25;;
2868;SDS011;1442;47.448;8.582;2023-10-08T04:59:18;11.98;;;6.50;;
2868;SDS011;1442;47.448;8.582;2023-10-08T05:01:46;11.57;;;6.93;;
2868;SDS011;1442;47.448;8.582;2023-10-08T05:04:27;12.38;;;7.13;;
2868;SDS011;1442;47.448;8.582;2023-10-08T05:07:10;11.88;;;7.18;;
2868;SDS011;1442;47.448;8.582;2023-10-08T05:09:43;16.70;;;7.30;;
2868;SDS011;1442;47.448;8.582;2023-10-08T05:12:38;15.43;;;7.20;;
2868;SDS011;1442;47.448;8.582;2023-10-08T05:15:11;13.40;;;6.97;;
2868;SDS011;1442;47.448;8.582;2023-10-08T05:17:58;11.82;;;7.05;;
2868;SDS011;1442;47.448;8.582;2023-10-08T05:20:38;14.63;;;6.43;;
2868;SDS011;1442;47.448;8.582;2023-10-08T05:23:24;13.52;;;7.03;;
2868;SDS011;1442;47.448;8.582;2023-10-08T05:26:09;10.85;;;6.53;;
2868;SDS011;1442;47.448;8.582;2023-10-08T05:28:47;14.63;;;7.05;;
2868;SDS011;1442;47.448;8.582;2023-10-08T05:31:26;12.20;;;6.68;;
2868;SDS011;1442;47.448;8.582;2023-10-08T05:34:11;12.23;;;7.43;;
2868;SDS011;1442;47.448;8.582;2023-10-08T05:36:43;13.73;;;7.90;;
2868;SDS011;1442;47.448;8.582;2023-10-08T05:39:36;12.15;;;7.25;;
2868;SDS011;1442;47.448;8.582;2023-10-08T05:42:05;11.47;;;7.20;;
2868;SDS011;1442;47.448;8.582;2023-10-08T05:44:43;11.82;;;6.60;;
2868;SDS011;1442;47.448;8.582;2023-10-08T05:47:11;15.65;;;7.63;;
2868;SDS011;1442;47.448;8.582;2023-10-08T05:49:54;14.60;;;7.40;;
2868;SDS011;1442;47.448;8.582;2023-10-08T05:52:40;14.03;;;7.70;;
2868;SDS011;1442;47.448;8.582;2023-10-08T05:55:16;12.98;;;7.03;;
2868;SDS011;1442;47.448;8.582;2023-10-08T05:57:47;16.27;;;6.97;;
2868;SDS011;1442;47.448;8.582;2023-10-08T06:00:19;12.57;;;7.27;;
2868;SDS011;1442;47.448;8.582;2023-10-08T06:03:04;14.00;;;7.50;;
2868;SDS011;1442;47.448;8.582;2023-10-08T06:05:56;12.30;;;7.57;;
2868;SDS011;1442;47.448;8.582;2023-10-08T06:08:47;13.27;;;7.78;;
2868;SDS011;1442;47.448;8.582;2023-10-08T06:11:15;12.00;;;7.45;;
2868;SDS011;1442;47.448;8.582;2023-10-08T06:13:52;14.60;;;7.47;;
2868;SDS011;1442;47.448;8.582;2023-10-08T06:16:26;11.90;;;7.73;;
2868;SDS011;1442;47.448;8.582;2023-10-08T06:19:06;14.50;;;8.00;;
2868;SDS011;1442;47.448;8.582;2023-10-08T06:21:34;14.25;;;7.90;;
2868;SDS011;1442;47.448;8.582;2023-10-08T06:24:03;12.20;;;7.37;;
2868;SDS011;1442;47.448;8.582;2023-10-08T06:26:34;9.55;;;6.47;;
2868;SDS011;1442;47.448;8.582;2023-10-08T06:29:03;12.60;;;6.60;;
2868;SDS011;1442;47.448;8.582;2023-10-08T06:31:45;15.90;;;7.65;;
2868;SDS011;1442;47.448;8.582;2023-10-08T06:34:16;10.68;;;6.90;;
2868;SDS011;1442;47.448;8.582;2023-10-08T06:36:46;14.77;;;7.68;;
2868;SDS011;1442;47.448;8.582;2023-10-08T06:39:15;11.27;;;6.97;;
2868;SDS011;1442;47.448;8.582;2023-10-08T06:41:44;12.43;;;6.57;;
2868;SDS011;1442;47.448;8.582;2023-10-08T06:44:12;13.63;;;7.15;;
2868;SDS011;1442;47.448;8.582;2023-10-08T06:46:40;13.33;;;6.50;;
2868;SDS011;1442;47.448;8.582;2023-10-08T06:49:09;12.48;;;6.82;;
2868;SDS011;1442;47.448;8.582;2023-10-08T06:51:40;10.65;;;6.35;;
2868;SDS011;1442;47.448;8.582;2023-10-08T06:54:08;14.57;;;6.80;;
2868;SDS011;1442;47.448;8.582;2023-10-08T06:56:39;13.77;;;6.90;;
2868;SDS011;1442;47.448;8.582;2023-10-08T06:59:11;13.00;;;6.50;;
2868;SDS011;1442;47.448;8.582;2023-10-08T07:01:38;14.85;;;7.38;;
2868;SDS011;1442;47.448;8.582;2023-10-08T07:04:05;12.25;;;6.85;;
2868;SDS011;1442;47.448;8.582;2023-10-08T07:06:38;12.33;;;6.47;;
2868;SDS011;1442;47.448;8.582;2023-10-08T07:09:06;12.82;;;6.80;;
2868;SDS011;1442;47.448;8.582;2023-10-08T07:11:38;13.80;;;6.47;;
2868;SDS011;1442;47.448;8.582;2023-10-08T07:14:09;13.18;;;6.65;;
2868;SDS011;1442;47.448;8.582;2023-10-08T07:16:38;11.85;;;6.30;;
2868;SDS011;1442;47.448;8.582;2023-10-08T07:19:07;13.13;;;6.38;;
2868;SDS011;1442;47.448;8.582;2023-10-08T07:21:44;14.32;;;6.47;;
2868;SDS011;1442;47.448;8.582;2023-10-08T07:24:11;12.77;;;6.60;;
2868;SDS011;1442;47.448;8.582;2023-10-08T07:26:42;11.38;;;6.28;;
2868;SDS011;1442;47.448;8.582;2023-10-08T07:29:12;14.30;;;6.00;;
2868;SDS011;1442;47.448;8.582;2023-10-08T07:31:42;12.13;;;6.28;;
2868;SDS011;1442;47.448;8.582;2023-10-08T07:34:14;12.25;;;5.80;;
2868;SDS011;1442;47.448;8.582;2023-10-08T07:36:52;12.17;;;5.67;;
2868;SDS011;1442;47.448;8.582;2023-10-08T07:39:21;13.13;;;6.30;;
2868;SDS011;1442;47.448;8.582;2023-10-08T07:41:52;11.48;;;5.60;;
2868;SDS011;1442;47.448;8.582;2023-10-08T07:44:20;13.00;;;5.70;;
2868;SDS011;1442;47.448;8.582;2023-10-08T07:46:48;12.70;;;6.05;;
2868;SDS011;1442;47.448;8.582;2023-10-08T07:49:15;12.52;;;5.78;;
2868;SDS011;1442;47.448;8.582;2023-10-08T07:51:43;14.45;;;6.15;;
2868;SDS011;1442;47.448;8.582;2023-10-08T07:54:17;16.25;;;6.18;;
2868;SDS011;1442;47.448;8.582;2023-10-08T07:56:45;15.35;;;6.57;;
2868;SDS011;1442;47.448;8.582;2023-10-08T07:59:13;12.13;;;6.60;;
2868;SDS011;1442;47.448;8.582;2023-10-08T08:01:41;13.52;;;6.35;;
2868;SDS011;1442;47.448;8.582;2023-10-08T08:04:09;14.45;;;7.18;;
2868;SDS011;1442;47.448;8.582;2023-10-08T08:06:46;14.30;;;6.93;;
2868;SDS011;1442;47.448;8.582;2023-10-08T08:09:14;14.60;;;6.90;;
2868;SDS011;1442;47.448;8.582;2023-10-08T08:11:46;13.23;;;6.88;;
2868;SDS011;1442;47.448;8.582;2023-10-08T08:14:14;11.55;;;6.22;;
2868;SDS011;1442;47.448;8.582;2023-10-08T08:16:43;12.32;;;6.05;;
2868;SDS011;1442;47.448;8.582;2023-10-08T08:19:13;13.77;;;7.18;;
2868;SDS011;1442;47.448;8.582;2023-10-08T08:21:41;13.57;;;6.57;;
2868;SDS011;1442;47.448;8.582;2023-10-08T08:24:10;17.02;;;6.65;;
2868;SDS011;1442;47.448;8.582;2023-10-08T08:26:38;12.05;;;5.97;;
2868;SDS011;1442;47.448;8.582;2023-10-08T08:29:27;13.63;;;6.13;;
2868;SDS011;1442;47.448;8.582;2023-10-08T08:31:54;13.75;;;6.55;;
2868;SDS011;1442;47.448;8.582;2023-10-08T08:34:22;12.52;;;6.03;;
2868;SDS011;1442;47.448;8.582;2023-10-08T08:36:49;11.18;;;6.20;;
2868;SDS011;1442;47.448;8.582;2023-10-08T08:39:16;15.20;;;6.88;;
2868;SDS011;1442;47.448;8.582;2023-10-08T08:41:54;16.08;;;6.47;;
2868;SDS011;1442;47.448;8.582;2023-10-08T08:44:28;15.38;;;6.53;;
2868;SDS011;1442;47.448;8.582;2023-10-08T08:46:56;12.23;;;6.38;;
2868;SDS011;1442;47.448;8.582;2023-10-08T08:49:24;12.75;;;6.28;;
2868;SDS011;1442;47.448;8.582;2023-10-08T08:51:52;14.32;;;6.07;;
2868;SDS011;1442;47.448;8.582;2023-10-08T08:54:20;13.88;;;6.18;;
2868;SDS011;1442;47.448;8.582;2023-10-08T08:56:49;15.13;;;6.45;;
2868;SDS011;1442;47.448;8.582;2023-10-08T08:59:17;14.30;;;6.50;;
2868;SDS011;1442;47.448;8.582;2023-10-08T09:01:57;14.38;;;5.78;;
2868;SDS011;1442;47.448;8.582;2023-10-08T09:04:46;12.80;;;6.00;;
2868;SDS011;1442;47.448;8.582;2023-10-08T09:07:23;12.88;;;5.88;;
2868;SDS011;1442;47.448;8.582;2023-10-08T09:09:59;14.00;;;6.55;;
2868;SDS011;1442;47.448;8.582;2023-10-08T09:12:42;14.18;;;6.30;;
2868;SDS011;1442;47.448;8.582;2023-10-08T09:18:11;15.60;;;6.45;;
2868;SDS011;1442;47.448;8.582;2023-10-08T09:20:50;11.75;;;6.20;;
2868;SDS011;1442;47.448;8.582;2023-10-08T09:23:23;17.10;;;6.47;;
2868;SDS011;1442;47.448;8.582;2023-10-08T09:25:59;13.57;;;6.40;;
2868;SDS011;1442;47.448;8.582;2023-10-08T09:28:49;16.30;;;6.50;;
2868;SDS011;1442;47.448;8.582;2023-10-08T09:31:28;13.48;;;5.97;;
2868;SDS011;1442;47.448;8.582;2023-10-08T09:34:04;13.88;;;6.28;;
2868;SDS011;1442;47.448;8.582;2023-10-08T09:36:36;18.42;;;6.47;;
2868;SDS011;1442;47.448;8.582;2023-10-08T09:39:07;16.27;;;6.75;;
2868;SDS011;1442;47.448;8.582;2023-10-08T09:41:54;14.02;;;5.55;;
2868;SDS011;1442;47.448;8.582;2023-10-08T09:44:29;16.43;;;6.10;;
2868;SDS011;1442;47.448;8.582;2023-10-08T09:47:22;15.88;;;5.88;;
2868;SDS011;1442;47.448;8.582;2023-10-08T09:56:11;16.35;;;5.68;;
2868;SDS011;1442;47.448;8.582;2023-10-08T09:58:57;15.25;;;5.72;;
2868;SDS011;1442;47.448;8.582;2023-10-08T10:01:42;13.37;;;5.63;;
2868;SDS011;1442;47.448;8.582;2023-10-08T10:04:22;13.23;;;5.22;;
2868;SDS011;1442;47.448;8.582;2023-10-08T10:07:14;14.90;;;5.75;;
2868;SDS011;1442;47.448;8.582;2023-10-08T10:09:49;14.38;;;5.60;;
2868;SDS011;1442;47.448;8.582;2023-10-08T10:12:20;13.20;;;6.05;;
2868;SDS011;1442;47.448;8.582;2023-10-08T10:14:51;13.18;;;6.20;;
2868;SDS011;1442;47.448;8.582;2023-10-08T10:17:20;13.80;;;5.78;;
2868;SDS011;1442;47.448;8.582;2023-10-08T10:19:49;17.52;;;6.53;;
2868;SDS011;1442;47.448;8.582;2023-10-08T10:22:26;15.05;;;6.00;;
2868;SDS011;1442;47.448;8.582;2023-10-08T10:24:54;14.10;;;6.28;;
2868;SDS011;1442;47.448;8.582;2023-10-08T10:27:22;17.73;;;5.85;;
2868;SDS011;1442;47.448;8.582;2023-10-08T10:29:51;17.33;;;6.47;;
2868;SDS011;1442;47.448;8.582;2023-10-08T10:32:29;17.50;;;6.43;;
2868;SDS011;1442;47.448;8.582;2023-10-08T10:34:56;14.98;;;6.47;;
2868;SDS011;1442;47.448;8.582;2023-10-08T10:37:24;14.10;;;6.33;;
2868;SDS011;1442;47.448;8.582;2023-10-08T10:39:58;15.00;;;6.20;;
2868;SDS011;1442;47.448;8.582;2023-10-08T10:42:27;15.48;;;5.78;;
2868;SDS011;1442;47.448;8.582;2023-10-08T10:44:59;15.20;;;6.13;;
2868;SDS011;1442;47.448;8.582;2023-10-08T10:47:39;21.02;;;6.72;;
2868;SDS011;1442;47.448;8.582;2023-10-08T10:50:16;17.38;;;6.10;;
2868;SDS011;1442;47.448;8.582;2023-10-08T10:52:51;15.47;;;6.33;;
2868;SDS011;1442;47.448;8.582;2023-10-08T10:55:19;15.02;;;6.18;;
2868;SDS011;1442;47.448;8.582;2023-10-08T10:57:58;18.08;;;6.18;;
2868;SDS011;1442;47.448;8.582;2023-10-08T11:00:36;15.90;;;6.13;;
2868;SDS011;1442;47.448;8.582;2023-10-08T11:03:22;14.25;;;5.70;;
2868;SDS011;1442;47.448;8.582;2023-10-08T11:05:51;15.13;;;5.78;;
2868;SDS011;1442;47.448;8.582;2023-10-08T11:08:20;13.90;;;5.63;;
2868;SDS011;1442;47.448;8.582;2023-10-08T11:10:49;16.50;;;6.13;;
2868;SDS011;1442;47.448;8.582;2023-10-08T11:13:21;16.40;;;5.63;;
2868;SDS011;1442;47.448;8.582;2023-10-08T11:15:53;17.80;;;5.88;;
2868;SDS011;1442;47.448;8.582;2023-10-08T11:18:23;15.27;;;5.57;;
2868;SDS011;1442;47.448;8.582;2023-10-08T11:20:53;16.38;;;5.40;;
2868;SDS011;1442;47.448;8.582;2023-10-08T11:23:30;17.75;;;6.05;;
2868;SDS011;1442;47.448;8.582;2023-10-08T11:25:58;21.73;;;5.97;;
2868;SDS011;1442;47.448;8.582;2023-10-08T11:28:28;16.25;;;5.75;;
2868;SDS011;1442;47.448;8.582;2023-10-08T11:30:59;16.93;;;5.40;;
2868;SDS011;1442;47.448;8.582;2023-10-08T11:33:33;18.45;;;6.50;;
2868;SDS011;1442;47.448;8.582;2023-10-08T11:36:00;11.90;;;5.37;;
2868;SDS011;1442;47.448;8.582;2023-10-08T11:38:37;20.38;;;6.20;;
2868;SDS011;1442;47.448;8.582;2023-10-08T11:41:11;16.00;;;5.18;;
2868;SDS011;1442;47.448;8.582;2023-10-08T11:43:48;16.50;;;5.60;;
2868;SDS011;1442;47.448;8.582;2023-10-08T11:46:19;13.55;;;5.47;;
2868;SDS011;1442;47.448;8.582;2023-10-08T11:48:46;16.93;;;5.40;;
2868;SDS011;1442;47.448;8.582;2023-10-08T11:51:15;20.90;;;6.10;;
2868;SDS011;1442;47.448;8.582;2023-10-08T11:53:43;20.98;;;6.18;;
2868;SDS011;1442;47.448;8.582;2023-10-08T11:56:10;15.48;;;5.65;;
2868;SDS011;1442;47.448;8.582;2023-10-08T11:58:40;18.70;;;5.68;;
2868;SDS011;1442;47.448;8.582;2023-10-08T12:01:11;16.35;;;5.80;;
2868;SDS011;1442;47.448;8.582;2023-10-08T12:03:41;14.43;;;5.43;;
2868;SDS011;1442;47.448;8.582;2023-10-08T12:06:08;23.88;;;6.25;;
2868;SDS011;1442;47.448;8.582;2023-10-08T12:08:40;14.82;;;5.20;;
2868;SDS011;1442;47.448;8.582;2023-10-08T12:11:07;21.48;;;5.68;;
2868;SDS011;1442;47.448;8.582;2023-10-08T12:13:37;18.20;;;5.67;;
2868;SDS011;1442;47.448;8.582;2023-10-08T12:16:08;18.85;;;6.10;;
2868;SDS011;1442;47.448;8.582;2023-10-08T12:18:44;19.42;;;5.70;;
2868;SDS011;1442;47.448;8.582;2023-10-08T12:21:14;21.40;;;5.93;;
2868;SDS011;1442;47.448;8.582;2023-10-08T12:23:42;16.58;;;5.80;;
2868;SDS011;1442;47.448;8.582;2023-10-08T12:26:11;24.33;;;5.70;;
2868;SDS011;1442;47.448;8.582;2023-10-08T12:28:40;17.13;;;5.97;;
2868;SDS011;1442;47.448;8.582;2023-10-08T12:31:09;20.67;;;6.38;;
2868;SDS011;1442;47.448;8.582;2023-10-08T12:33:36;21.60;;;5.72;;
2868;SDS011;1442;47.448;8.582;2023-10-08T12:36:05;22.17;;;6.30;;
2868;SDS011;1442;47.448;8.582;2023-10-08T12:38:36;22.47;;;6.70;;
2868;SDS011;1442;47.448;8.582;2023-10-08T12:41:03;27.50;;;6.68;;
2868;SDS011;1442;47.448;8.582;2023-10-08T12:43:37;20.20;;;5.90;;
2868;SDS011;1442;47.448;8.582;2023-10-08T12:46:07;24.60;;;6.38;;
2868;SDS011;1442;47.448;8.582;2023-10-08T12:48:39;21.90;;;6.25;;
2868;SDS011;1442;47.448;8.582;2023-10-08T12:51:07;24.30;;;6.57;;
2868;SDS011;1442;47.448;8.582;2023-10-08T12:53:36;26.50;;;6.78;;
2868;SDS011;1442;47.448;8.582;2023-10-08T12:56:04;22.13;;;6.82;;
2868;SDS011;1442;47.448;8.582;2023-10-08T12:58:32;22.38;;;5.78;;
2868;SDS011;1442;47.448;8.582;2023-10-08T13:01:06;21.10;;;6.40;;
2868;SDS011;1442;47.448;8.582;2023-10-08T13:03:34;25.83;;;6.80;;
2868;SDS011;1442;47.448;8.582;2023-10-08T13:06:08;19.00;;;5.83;;
2868;SDS011;1442;47.448;8.582;2023-10-08T13:08:39;23.93;;;6.87;;
2868;SDS011;1442;47.448;8.582;2023-10-08T13:11:07;16.58;;;6.18;;
2868;SDS011;1442;47.448;8.582;2023-10-08T13:13:34;18.27;;;6.38;;
2868;SDS011;1442;47.448;8.582;2023-10-08T13:16:02;20.80;;;6.18;;
2868;SDS011;1442;47.448;8.582;2023-10-08T13:18:32;22.75;;;6.35;;
2868;SDS011;1442;47.448;8.582;2023-10-08T13:21:02;20.80;;;6.15;;
2868;SDS011;1442;47.448;8.582;2023-10-08T13:23:31;24.90;;;6.70;;
2868;SDS011;1442;47.448;8.582;2023-10-08T13:26:00;20.92;;;5.88;;
2868;SDS011;1442;47.448;8.582;2023-10-08T13:28:31;19.42;;;6.55;;
2868;SDS011;1442;47.448;8.582;2023-10-08T13:30:59;17.43;;;5.83;;
2868;SDS011;1442;47.448;8.582;2023-10-08T13:33:34;26.13;;;6.85;;
2868;SDS011;1442;47.448;8.582;2023-10-08T13:36:04;27.50;;;6.45;;
2868;SDS011;1442;47.448;8.582;2023-10-08T13:38:34;24.88;;;6.63;;
2868;SDS011;1442;47.448;8.582;2023-10-08T13:41:01;22.35;;;6.93;;
2868;SDS011;1442;47.448;8.582;2023-10-08T13:43:31;23.35;;;6.20;;
2868;SDS011;1442;47.448;8.582;2023-10-08T13:46:02;22.87;;;6.90;;
2868;SDS011;1442;47.448;8.582;2023-10-08T13:48:31;24.55;;;6.80;;
2868;SDS011;1442;47.448;8.582;2023-10-08T13:50:59;23.95;;;6.78;;
2868;SDS011;1442;47.448;8.582;2023-10-08T13:53:28;25.25;;;6.60;;
2868;SDS011;1442;47.448;8.582;2023-10-08T13:55:58;31.58;;;6.53;;
2868;SDS011;1442;47.448;8.582;2023-10-08T13:58:26;25.85;;;6.43;;
2868;SDS011;1442;47.448;8.582;2023-10-08T14:00:55;22.80;;;6.67;;
2868;SDS011;1442;47.448;8.582;2023-10-08T14:03:22;29.45;;;6.63;;
2868;SDS011;1442;47.448;8.582;2023-10-08T14:05:49;23.33;;;6.18;;
2868;SDS011;1442;47.448;8.582;2023-10-08T14:08:17;25.33;;;7.05;;
2868;SDS011;1442;47.448;8.582;2023-10-08T14:10:44;22.27;;;6.50;;
2868;SDS011;1442;47.448;8.582;2023-10-08T14:13:15;22.75;;;6.75;;
2868;SDS011;1442;47.448;8.582;2023-10-08T14:15:44;21.77;;;6.67;;
2868;SDS011;1442;47.448;8.582;2023-10-08T14:18:14;23.38;;;6.85;;
2868;SDS011;1442;47.448;8.582;2023-10-08T14:20:43;23.13;;;6.80;;
2868;SDS011;1442;47.448;8.582;2023-10-08T14:23:12;22.37;;;6.93;;
2868;SDS011;1442;47.448;8.582;2023-10-08T14:25:41;24.80;;;6.68;;
2868;SDS011;1442;47.448;8.582;2023-10-08T14:28:10;26.30;;;6.57;;
2868;SDS011;1442;47.448;8.582;2023-10-08T14:30:48;30.92;;;6.60;;
2868;SDS011;1442;47.448;8.582;2023-10-08T14:33:20;27.43;;;6.20;;
2868;SDS011;1442;47.448;8.582;2023-10-08T14:35:56;25.08;;;6.65;;
2868;SDS011;1442;47.448;8.582;2023-10-08T14:38:55;23.87;;;6.80;;
2868;SDS011;1442;47.448;8.582;2023-10-08T14:41:40;23.67;;;6.55;;
2868;SDS011;1442;47.448;8.582;2023-10-08T14:44:24;21.85;;;6.18;;
2868;SDS011;1442;47.448;8.582;2023-10-08T14:46:53;21.23;;;6.82;;
2868;SDS011;1442;47.448;8.582;2023-10-08T14:49:21;23.75;;;6.72;;
2868;SDS011;1442;47.448;8.582;2023-10-08T14:51:48;27.95;;;7.00;;
2868;SDS011;1442;47.448;8.582;2023-10-08T14:54:18;22.20;;;6.82;;
2868;SDS011;1442;47.448;8.582;2023-10-08T14:56:47;26.90;;;6.77;;
2868;SDS011;1442;47.448;8.582;2023-10-08T14:59:14;28.00;;;7.22;;
2868;SDS011;1442;47.448;8.582;2023-10-08T15:01:43;26.90;;;6.43;;
2868;SDS011;1442;47.448;8.582;2023-10-08T15:04:13;18.38;;;7.15;;
2868;SDS011;1442;47.448;8.582;2023-10-08T15:06:41;27.55;;;6.43;;
2868;SDS011;1442;47.448;8.582;2023-10-08T15:09:09;23.80;;;6.97;;
2868;SDS011;1442;47.448;8.582;2023-10-08T15:11:43;18.35;;;6.07;;
2868;SDS011;1442;47.448;8.582;2023-10-08T15:14:11;21.83;;;6.15;;
2868;SDS011;1442;47.448;8.582;2023-10-08T15:16:41;23.55;;;6.65;;
2868;SDS011;1442;47.448;8.582;2023-10-08T15:19:11;27.15;;;6.68;;
2868;SDS011;1442;47.448;8.582;2023-10-08T15:21:42;26.60;;;6.88;;
2868;SDS011;1442;47.448;8.582;2023-10-08T15:24:09;23.52;;;6.35;;
2868;SDS011;1442;47.448;8.582;2023-10-08T15:26:37;24.90;;;5.93;;
2868;SDS011;1442;47.448;8.582;2023-10-08T15:29:04;23.70;;;6.70;;
2868;SDS011;1442;47.448;8.582;2023-10-08T15:31:31;26.10;;;6.20;;
2868;SDS011;1442;47.448;8.582;2023-10-08T15:33:58;24.92;;;6.75;;
2868;SDS011;1442;47.448;8.582;2023-10-08T15:36:29;21.65;;;6.70;;
2868;SDS011;1442;47.448;8.582;2023-10-08T15:38:58;20.20;;;6.40;;